sensor_id;sensor_type;location;lat;lon;timestamp;temperature;humidity
5392;DHT22;2719;53.624;9.786;2023-04-25T00:02:10;8.70;99.90
5392;DHT22;2719;53.624;9.786;2023-04-25T00:04:36;8.70;99.90
5392;DHT22;2719;53.624;9.786;2023-04-25T00:07:04;8.60;99.90
5392;DHT22;2719;53.624;9.786;2023-04-25T00:09:32;8.60;99.90
5392;DHT22;2719;53.624;9.786;2023-04-25T00:11:59;8.70;99.90
5392;DHT22;2719;53.624;9.786;2023-04-25T00:14:26;8.70;99.90
5392;DHT22;2719;53.624;9.786;2023-04-25T00:16:54;8.60;99.90
5392;DHT22;2719;53.624;9.786;2023-04-25T00:19:20;8.70;99.90
5392;DHT22;2719;53.624;9.786;2023-04-25T00:21:47;8.50;99.90
5392;DHT22;2719;53.624;9.786;2023-04-25T00:24:14;8.50;99.90
5392;DHT22;2719;53.624;9.786;2023-04-25T00:26:42;8.50;99.90
5392;DHT22;2719;53.624;9.786;2023-04-25T00:29:08;8.50;99.90
5392;DHT22;2719;53.624;9.786;2023-04-25T00:31:35;8.50;99.90
5392;DHT22;2719;53.624;9.786;2023-04-25T00:34:02;8.50;99.90
5392;DHT22;2719;53.624;9.786;2023-04-25T00:36:28;8.40;99.90
5392;DHT22;2719;53.624;9.786;2023-04-25T00:38:56;8.40;99.90
5392;DHT22;2719;53.624;9.786;2023-04-25T00:41:22;8.50;99.90
5392;DHT22;2719;53.624;9.786;2023-04-25T00:43:52;8.40;99.90
5392;DHT22;2719;53.624;9.786;2023-04-25T00:46:20;8.40;99.90
5392;DHT22;2719;53.624;9.786;2023-04-25T00:48:46;8.40;99.90
5392;DHT22;2719;53.624;9.786;2023-04-25T00:51:16;8.50;99.90
5392;DHT22;2719;53.624;9.786;2023-04-25T00:53:45;8.50;99.90
5392;DHT22;2719;53.624;9.786;2023-04-25T00:56:12;8.50;99.90
5392;DHT22;2719;53.624;9.786;2023-04-25T00:58:40;8.40;99.90
5392;DHT22;2719;53.624;9.786;2023-04-25T01:01:09;8.30;99.90
5392;DHT22;2719;53.624;9.786;2023-04-25T01:03:38;8.30;99.90
5392;DHT22;2719;53.624;9.786;2023-04-25T01:06:07;8.20;99.90
5392;DHT22;2719;53.624;9.786;2023-04-25T01:08:34;8.20;99.90
5392;DHT22;2719;53.624;9.786;2023-04-25T01:11:01;8.20;99.90
5392;DHT22;2719;53.624;9.786;2023-04-25T01:13:28;8.20;99.90
5392;DHT22;2719;53.624;9.786;2023-04-25T01:15:54;8.20;99.90
5392;DHT22;2719;53.624;9.786;2023-04-25T01:18:22;8.20;99.90
5392;DHT22;2719;53.624;9.786;2023-04-25T01:20:51;8.10;99.90
5392;DHT22;2719;53.624;9.786;2023-04-25T01:23:20;8.10;99.90
5392;DHT22;2719;53.624;9.786;2023-04-25T01:25:47;8.20;99.90
5392;DHT22;2719;53.624;9.786;2023-04-25T01:28:14;8.30;99.90
5392;DHT22;2719;53.624;9.786;2023-04-25T01:30:41;8.20;99.90
5392;DHT22;2719;53.624;9.786;2023-04-25T01:33:08;8.20;99.90
5392;DHT22;2719;53.624;9.786;2023-04-25T01:35:35;8.10;99.90
5392;DHT22;2719;53.624;9.786;2023-04-25T01:38:01;8.20;99.90
5392;DHT22;2719;53.624;9.786;2023-04-25T01:40:30;8.10;99.90
5392;DHT22;2719;53.624;9.786;2023-04-25T01:42:57;8.10;99.90
5392;DHT22;2719;53.624;9.786;2023-04-25T01:45:24;8.00;99.90
5392;DHT22;2719;53.624;9.786;2023-04-25T01:47:51;8.10;99.90
5392;DHT22;2719;53.624;9.786;2023-04-25T01:50:18;8.10;99.90
5392;DHT22;2719;53.624;9.786;2023-04-25T01:52:45;8.10;99.90
5392;DHT22;2719;53.624;9.786;2023-04-25T01:55:12;8.10;99.90
5392;DHT22;2719;53.624;9.786;2023-04-25T01:57:40;8.10;99.90
5392;DHT22;2719;53.624;9.786;2023-04-25T02:00:07;8.10;99.90
5392;DHT22;2719;53.624;9.786;2023-04-25T02:02:35;8.10;99.90
5392;DHT22;2719;53.624;9.786;2023-04-25T02:05:01;8.00;99.90
5392;DHT22;2719;53.624;9.786;2023-04-25T02:07:28;7.90;99.90
5392;DHT22;2719;53.624;9.786;2023-04-25T02:09:55;7.90;99.90
5392;DHT22;2719;53.624;9.786;2023-04-25T02:12:21;7.90;99.90
5392;DHT22;2719;53.624;9.786;2023-04-25T02:14:49;7.90;99.90
5392;DHT22;2719;53.624;9.786;2023-04-25T02:17:16;7.80;99.90
5392;DHT22;2719;53.624;9.786;2023-04-25T02:19:43;7.80;99.90
5392;DHT22;2719;53.624;9.786;2023-04-25T02:22:10;7.80;99.90
5392;DHT22;2719;53.624;9.786;2023-04-25T02:24:38;7.80;99.90
5392;DHT22;2719;53.624;9.786;2023-04-25T02:27:05;7.90;99.90
5392;DHT22;2719;53.624;9.786;2023-04-25T02:29:33;7.90;99.90
5392;DHT22;2719;53.624;9.786;2023-04-25T02:32:01;7.80;99.90
5392;DHT22;2719;53.624;9.786;2023-04-25T02:34:28;7.80;99.90
5392;DHT22;2719;53.624;9.786;2023-04-25T02:36:54;7.70;99.90
5392;DHT22;2719;53.624;9.786;2023-04-25T02:39:21;7.80;99.90
5392;DHT22;2719;53.624;9.786;2023-04-25T02:41:50;7.80;99.90
5392;DHT22;2719;53.624;9.786;2023-04-25T02:44:17;7.70;99.90
5392;DHT22;2719;53.624;9.786;2023-04-25T02:46:43;7.60;99.90
5392;DHT22;2719;53.624;9.786;2023-04-25T02:49:11;7.70;99.90
5392;DHT22;2719;53.624;9.786;2023-04-25T02:51:38;7.80;99.90
5392;DHT22;2719;53.624;9.786;2023-04-25T02:54:05;7.70;99.90
5392;DHT22;2719;53.624;9.786;2023-04-25T02:56:31;7.80;99.90
5392;DHT22;2719;53.624;9.786;2023-04-25T02:58:58;7.80;99.90
5392;DHT22;2719;53.624;9.786;2023-04-25T03:01:25;7.70;99.90
5392;DHT22;2719;53.624;9.786;2023-04-25T03:03:51;7.70;99.90
5392;DHT22;2719;53.624;9.786;2023-04-25T03:06:19;7.70;99.90
5392;DHT22;2719;53.624;9.786;2023-04-25T03:08:46;7.70;99.90
5392;DHT22;2719;53.624;9.786;2023-04-25T03:11:12;7.70;99.90
5392;DHT22;2719;53.624;9.786;2023-04-25T03:13:39;7.70;99.90
5392;DHT22;2719;53.624;9.786;2023-04-25T03:16:06;7.40;99.90
5392;DHT22;2719;53.624;9.786;2023-04-25T03:18:32;7.50;99.90
5392;DHT22;2719;53.624;9.786;2023-04-25T03:20:59;7.60;99.90
5392;DHT22;2719;53.624;9.786;2023-04-25T03:23:27;7.50;99.90
5392;DHT22;2719;53.624;9.786;2023-04-25T03:25:54;7.40;99.90
5392;DHT22;2719;53.624;9.786;2023-04-25T03:28:21;7.40;99.90
5392;DHT22;2719;53.624;9.786;2023-04-25T03:30:48;7.30;99.90
5392;DHT22;2719;53.624;9.786;2023-04-25T03:33:14;7.30;99.90
5392;DHT22;2719;53.624;9.786;2023-04-25T03:35:41;7.40;99.90
5392;DHT22;2719;53.624;9.786;2023-04-25T03:38:08;7.40;99.90
5392;DHT22;2719;53.624;9.786;2023-04-25T03:40:36;7.30;99.90
5392;DHT22;2719;53.624;9.786;2023-04-25T03:43:02;7.30;99.90
5392;DHT22;2719;53.624;9.786;2023-04-25T03:45:30;7.30;99.90
5392;DHT22;2719;53.624;9.786;2023-04-25T03:47:57;7.30;99.90
5392;DHT22;2719;53.624;9.786;2023-04-25T03:50:23;7.30;99.90
5392;DHT22;2719;53.624;9.786;2023-04-25T03:52:50;7.20;99.90
5392;DHT22;2719;53.624;9.786;2023-04-25T03:55:17;7.20;99.90
5392;DHT22;2719;53.624;9.786;2023-04-25T03:57:45;7.20;99.90
5392;DHT22;2719;53.624;9.786;2023-04-25T04:00:13;7.10;99.90
5392;DHT22;2719;53.624;9.786;2023-04-25T04:02:39;7.10;99.90
5392;DHT22;2719;53.624;9.786;2023-04-25T04:05:07;7.10;99.90
5392;DHT22;2719;53.624;9.786;2023-04-25T04:07:33;7.10;99.90
5392;DHT22;2719;53.624;9.786;2023-04-25T04:10:05;7.00;99.90
5392;DHT22;2719;53.624;9.786;2023-04-25T04:12:32;7.10;99.90
5392;DHT22;2719;53.624;9.786;2023-04-25T04:15:00;7.10;99.90
5392;DHT22;2719;53.624;9.786;2023-04-25T04:17:28;7.00;99.90
5392;DHT22;2719;53.624;9.786;2023-04-25T04:19:55;7.00;99.90
5392;DHT22;2719;53.624;9.786;2023-04-25T04:22:22;7.10;99.90
5392;DHT22;2719;53.624;9.786;2023-04-25T04:24:49;7.00;99.90
5392;DHT22;2719;53.624;9.786;2023-04-25T04:27:17;7.00;99.90
5392;DHT22;2719;53.624;9.786;2023-04-25T04:29:45;7.00;99.90
5392;DHT22;2719;53.624;9.786;2023-04-25T04:32:13;6.90;99.90
5392;DHT22;2719;53.624;9.786;2023-04-25T04:34:39;7.00;99.90
5392;DHT22;2719;53.624;9.786;2023-04-25T04:37:07;7.00;99.90
5392;DHT22;2719;53.624;9.786;2023-04-25T04:39:35;6.90;99.90
5392;DHT22;2719;53.624;9.786;2023-04-25T04:42:02;6.90;99.90
5392;DHT22;2719;53.624;9.786;2023-04-25T04:44:30;6.90;99.90
5392;DHT22;2719;53.624;9.786;2023-04-25T04:46:58;6.90;99.90
5392;DHT22;2719;53.624;9.786;2023-04-25T04:49:26;6.90;99.90
5392;DHT22;2719;53.624;9.786;2023-04-25T04:51:53;6.90;99.90
5392;DHT22;2719;53.624;9.786;2023-04-25T04:54:20;7.00;99.90
5392;DHT22;2719;53.624;9.786;2023-04-25T04:56:47;7.00;99.90
5392;DHT22;2719;53.624;9.786;2023-04-25T04:59:13;6.70;99.90
5392;DHT22;2719;53.624;9.786;2023-04-25T05:01:40;6.70;99.90
5392;DHT22;2719;53.624;9.786;2023-04-25T05:04:07;6.70;99.90
5392;DHT22;2719;53.624;9.786;2023-04-25T05:06:35;6.70;99.90
5392;DHT22;2719;53.624;9.786;2023-04-25T05:09:01;6.70;99.90
5392;DHT22;2719;53.624;9.786;2023-04-25T05:11:28;6.90;99.90
5392;DHT22;2719;53.624;9.786;2023-04-25T05:13:55;6.80;99.90
5392;DHT22;2719;53.624;9.786;2023-04-25T05:16:22;6.90;99.90
5392;DHT22;2719;53.624;9.786;2023-04-25T05:18:48;6.90;99.90
5392;DHT22;2719;53.624;9.786;2023-04-25T05:21:15;7.00;99.90
5392;DHT22;2719;53.624;9.786;2023-04-25T05:23:43;7.00;99.90
5392;DHT22;2719;53.624;9.786;2023-04-25T05:26:10;7.00;99.90
5392;DHT22;2719;53.624;9.786;2023-04-25T05:28:39;7.10;99.90
5392;DHT22;2719;53.624;9.786;2023-04-25T05:31:06;7.10;99.90
5392;DHT22;2719;53.624;9.786;2023-04-25T05:33:32;7.10;99.90
5392;DHT22;2719;53.624;9.786;2023-04-25T05:35:59;7.20;99.90
5392;DHT22;2719;53.624;9.786;2023-04-25T05:38:26;7.20;99.90
5392;DHT22;2719;53.624;9.786;2023-04-25T05:40:54;7.10;99.90
5392;DHT22;2719;53.624;9.786;2023-04-25T05:43:20;7.10;99.90
5392;DHT22;2719;53.624;9.786;2023-04-25T05:45:47;7.00;99.90
5392;DHT22;2719;53.624;9.786;2023-04-25T05:48:14;7.00;99.90
5392;DHT22;2719;53.624;9.786;2023-04-25T05:50:41;7.00;99.90
5392;DHT22;2719;53.624;9.786;2023-04-25T05:53:07;7.00;99.90
5392;DHT22;2719;53.624;9.786;2023-04-25T05:55:34;7.00;99.90
5392;DHT22;2719;53.624;9.786;2023-04-25T05:58:02;7.00;99.90
5392;DHT22;2719;53.624;9.786;2023-04-25T06:00:29;7.20;99.90
5392;DHT22;2719;53.624;9.786;2023-04-25T06:02:56;7.10;99.90
5392;DHT22;2719;53.624;9.786;2023-04-25T06:05:22;7.10;99.90
5392;DHT22;2719;53.624;9.786;2023-04-25T06:07:49;7.10;99.90
5392;DHT22;2719;53.624;9.786;2023-04-25T06:10:16;7.10;99.90
5392;DHT22;2719;53.624;9.786;2023-04-25T06:12:42;7.10;99.90
5392;DHT22;2719;53.624;9.786;2023-04-25T06:15:11;7.00;99.90
5392;DHT22;2719;53.624;9.786;2023-04-25T06:17:37;6.80;99.90
5392;DHT22;2719;53.624;9.786;2023-04-25T06:20:05;6.90;99.90
5392;DHT22;2719;53.624;9.786;2023-04-25T06:22:32;6.90;99.90
5392;DHT22;2719;53.624;9.786;2023-04-25T06:24:59;6.90;99.90
5392;DHT22;2719;53.624;9.786;2023-04-25T06:27:26;6.80;99.90
5392;DHT22;2719;53.624;9.786;2023-04-25T06:29:52;6.90;99.90
5392;DHT22;2719;53.624;9.786;2023-04-25T06:32:20;7.00;99.90
5392;DHT22;2719;53.624;9.786;2023-04-25T06:34:47;6.90;99.90
5392;DHT22;2719;53.624;9.786;2023-04-25T06:37:14;7.00;99.90
5392;DHT22;2719;53.624;9.786;2023-04-25T06:39:40;7.00;99.90
5392;DHT22;2719;53.624;9.786;2023-04-25T06:42:07;7.10;99.90
5392;DHT22;2719;53.624;9.786;2023-04-25T06:44:34;7.20;99.90
5392;DHT22;2719;53.624;9.786;2023-04-25T06:47:01;7.20;99.90
5392;DHT22;2719;53.624;9.786;2023-04-25T06:49:29;7.20;99.90
5392;DHT22;2719;53.624;9.786;2023-04-25T06:51:58;7.20;99.90
5392;DHT22;2719;53.624;9.786;2023-04-25T06:54:26;7.20;99.90
5392;DHT22;2719;53.624;9.786;2023-04-25T06:56:55;7.30;99.90
5392;DHT22;2719;53.624;9.786;2023-04-25T06:59:22;7.30;99.90
5392;DHT22;2719;53.624;9.786;2023-04-25T07:01:49;7.30;99.90
5392;DHT22;2719;53.624;9.786;2023-04-25T07:04:15;7.40;99.90
5392;DHT22;2719;53.624;9.786;2023-04-25T07:06:43;7.40;99.90
5392;DHT22;2719;53.624;9.786;2023-04-25T07:09:12;7.50;99.90
5392;DHT22;2719;53.624;9.786;2023-04-25T07:11:39;7.40;99.90
5392;DHT22;2719;53.624;9.786;2023-04-25T07:14:06;7.40;99.90
5392;DHT22;2719;53.624;9.786;2023-04-25T07:16:32;7.50;99.90
5392;DHT22;2719;53.624;9.786;2023-04-25T07:18:59;7.50;99.90
5392;DHT22;2719;53.624;9.786;2023-04-25T07:21:26;7.40;99.90
5392;DHT22;2719;53.624;9.786;2023-04-25T07:23:54;7.40;99.90
5392;DHT22;2719;53.624;9.786;2023-04-25T07:26:20;7.60;99.90
5392;DHT22;2719;53.624;9.786;2023-04-25T07:28:47;7.60;99.90
5392;DHT22;2719;53.624;9.786;2023-04-25T07:31:16;7.80;99.90
5392;DHT22;2719;53.624;9.786;2023-04-25T07:33:43;7.70;99.90
5392;DHT22;2719;53.624;9.786;2023-04-25T07:36:10;7.60;99.90
5392;DHT22;2719;53.624;9.786;2023-04-25T07:38:37;7.70;99.90
5392;DHT22;2719;53.624;9.786;2023-04-25T07:41:05;7.60;99.90
5392;DHT22;2719;53.624;9.786;2023-04-25T07:43:32;7.70;99.90
5392;DHT22;2719;53.624;9.786;2023-04-25T07:45:59;7.80;99.90
5392;DHT22;2719;53.624;9.786;2023-04-25T07:48:25;7.90;99.90
5392;DHT22;2719;53.624;9.786;2023-04-25T07:50:52;7.80;99.90
5392;DHT22;2719;53.624;9.786;2023-04-25T07:53:19;7.70;99.90
5392;DHT22;2719;53.624;9.786;2023-04-25T07:55:46;7.80;99.90
5392;DHT22;2719;53.624;9.786;2023-04-25T07:58:14;8.00;99.90
5392;DHT22;2719;53.624;9.786;2023-04-25T08:00:40;8.00;99.90
5392;DHT22;2719;53.624;9.786;2023-04-25T08:03:09;8.00;99.90
5392;DHT22;2719;53.624;9.786;2023-04-25T08:05:35;8.10;99.90
5392;DHT22;2719;53.624;9.786;2023-04-25T08:08:02;8.10;99.90
5392;DHT22;2719;53.624;9.786;2023-04-25T08:10:31;8.10;99.90
5392;DHT22;2719;53.624;9.786;2023-04-25T08:12:58;8.00;99.90
5392;DHT22;2719;53.624;9.786;2023-04-25T08:15:26;8.10;99.90
5392;DHT22;2719;53.624;9.786;2023-04-25T08:17:53;8.20;99.90
5392;DHT22;2719;53.624;9.786;2023-04-25T08:20:20;8.40;99.90
5392;DHT22;2719;53.624;9.786;2023-04-25T08:22:46;8.40;99.90
5392;DHT22;2719;53.624;9.786;2023-04-25T08:25:14;8.30;99.90
5392;DHT22;2719;53.624;9.786;2023-04-25T08:27:41;8.40;99.90
5392;DHT22;2719;53.624;9.786;2023-04-25T08:30:08;8.40;99.90
5392;DHT22;2719;53.624;9.786;2023-04-25T08:32:36;8.40;99.90
5392;DHT22;2719;53.624;9.786;2023-04-25T08:35:04;8.50;99.90
5392;DHT22;2719;53.624;9.786;2023-04-25T08:37:32;8.60;99.90
5392;DHT22;2719;53.624;9.786;2023-04-25T08:39:58;8.60;99.90
5392;DHT22;2719;53.624;9.786;2023-04-25T08:42:27;8.60;99.90
5392;DHT22;2719;53.624;9.786;2023-04-25T08:44:54;8.70;99.90
5392;DHT22;2719;53.624;9.786;2023-04-25T08:47:22;8.40;99.90
5392;DHT22;2719;53.624;9.786;2023-04-25T08:49:51;8.60;99.90
5392;DHT22;2719;53.624;9.786;2023-04-25T08:52:22;8.40;99.90
5392;DHT22;2719;53.624;9.786;2023-04-25T08:54:49;8.20;99.90
5392;DHT22;2719;53.624;9.786;2023-04-25T08:57:16;8.10;99.90
5392;DHT22;2719;53.624;9.786;2023-04-25T08:59:44;8.10;99.90
5392;DHT22;2719;53.624;9.786;2023-04-25T09:02:12;8.00;99.90
5392;DHT22;2719;53.624;9.786;2023-04-25T09:04:43;8.20;99.90
5392;DHT22;2719;53.624;9.786;2023-04-25T09:07:11;8.10;99.90
5392;DHT22;2719;53.624;9.786;2023-04-25T09:09:41;8.00;99.90
5392;DHT22;2719;53.624;9.786;2023-04-25T09:12:08;8.10;99.90
5392;DHT22;2719;53.624;9.786;2023-04-25T09:14:34;8.20;99.90
5392;DHT22;2719;53.624;9.786;2023-04-25T09:17:04;8.40;99.90
5392;DHT22;2719;53.624;9.786;2023-04-25T09:19:34;8.50;99.90
5392;DHT22;2719;53.624;9.786;2023-04-25T09:22:01;8.70;99.90
5392;DHT22;2719;53.624;9.786;2023-04-25T09:24:37;8.70;99.90
5392;DHT22;2719;53.624;9.786;2023-04-25T09:27:05;8.40;99.90
5392;DHT22;2719;53.624;9.786;2023-04-25T09:29:33;8.20;99.90
5392;DHT22;2719;53.624;9.786;2023-04-25T09:32:17;8.10;99.90
5392;DHT22;2719;53.624;9.786;2023-04-25T09:34:46;8.00;99.90
5392;DHT22;2719;53.624;9.786;2023-04-25T09:37:17;8.00;99.90
5392;DHT22;2719;53.624;9.786;2023-04-25T09:39:47;8.10;99.90
5392;DHT22;2719;53.624;9.786;2023-04-25T09:42:14;8.00;99.90
5392;DHT22;2719;53.624;9.786;2023-04-25T09:44:45;8.20;99.90
5392;DHT22;2719;53.624;9.786;2023-04-25T09:47:13;8.20;99.90
5392;DHT22;2719;53.624;9.786;2023-04-25T09:49:41;8.30;99.90
5392;DHT22;2719;53.624;9.786;2023-04-25T09:52:09;8.30;99.90
5392;DHT22;2719;53.624;9.786;2023-04-25T09:54:36;8.50;99.90
5392;DHT22;2719;53.624;9.786;2023-04-25T09:57:10;8.50;99.90
5392;DHT22;2719;53.624;9.786;2023-04-25T09:59:39;8.70;99.90
5392;DHT22;2719;53.624;9.786;2023-04-25T10:02:09;8.80;99.90
5392;DHT22;2719;53.624;9.786;2023-04-25T10:04:38;8.90;99.90
5392;DHT22;2719;53.624;9.786;2023-04-25T10:07:06;8.90;99.90
5392;DHT22;2719;53.624;9.786;2023-04-25T10:09:33;8.70;99.90
5392;DHT22;2719;53.624;9.786;2023-04-25T10:12:04;8.80;99.90
5392;DHT22;2719;53.624;9.786;2023-04-25T10:14:32;8.90;99.90
5392;DHT22;2719;53.624;9.786;2023-04-25T10:17:00;8.80;99.90
5392;DHT22;2719;53.624;9.786;2023-04-25T10:19:27;9.10;99.90
5392;DHT22;2719;53.624;9.786;2023-04-25T10:22:02;9.50;99.90
5392;DHT22;2719;53.624;9.786;2023-04-25T10:24:30;9.60;99.90
5392;DHT22;2719;53.624;9.786;2023-04-25T10:26:57;9.60;99.90
5392;DHT22;2719;53.624;9.786;2023-04-25T10:29:26;9.80;99.90
5392;DHT22;2719;53.624;9.786;2023-04-25T10:31:53;10.00;99.90
5392;DHT22;2719;53.624;9.786;2023-04-25T10:34:24;9.90;99.90
5392;DHT22;2719;53.624;9.786;2023-04-25T10:37:03;10.00;99.90
5392;DHT22;2719;53.624;9.786;2023-04-25T10:39:30;10.20;99.90
5392;DHT22;2719;53.624;9.786;2023-04-25T10:41:59;10.20;99.90
5392;DHT22;2719;53.624;9.786;2023-04-25T10:44:30;10.20;99.90
5392;DHT22;2719;53.624;9.786;2023-04-25T10:46:57;10.00;99.90
5392;DHT22;2719;53.624;9.786;2023-04-25T10:49:32;9.90;99.90
5392;DHT22;2719;53.624;9.786;2023-04-25T10:52:13;9.90;99.90
5392;DHT22;2719;53.624;9.786;2023-04-25T10:54:41;10.00;99.90
5392;DHT22;2719;53.624;9.786;2023-04-25T10:57:26;10.20;99.90
5392;DHT22;2719;53.624;9.786;2023-04-25T10:59:54;10.30;99.90
5392;DHT22;2719;53.624;9.786;2023-04-25T11:02:26;10.40;99.90
5392;DHT22;2719;53.624;9.786;2023-04-25T11:04:53;10.40;99.90
5392;DHT22;2719;53.624;9.786;2023-04-25T11:07:26;10.30;99.90
5392;DHT22;2719;53.624;9.786;2023-04-25T11:09:56;10.50;99.90
5392;DHT22;2719;53.624;9.786;2023-04-25T11:12:24;10.40;99.90
5392;DHT22;2719;53.624;9.786;2023-04-25T11:14:58;10.60;99.90
5392;DHT22;2719;53.624;9.786;2023-04-25T11:17:28;10.90;99.90
5392;DHT22;2719;53.624;9.786;2023-04-25T11:19:55;10.90;99.90
5392;DHT22;2719;53.624;9.786;2023-04-25T11:22:22;10.40;99.90
5392;DHT22;2719;53.624;9.786;2023-04-25T11:24:49;9.70;99.90
5392;DHT22;2719;53.624;9.786;2023-04-25T11:27:16;9.50;99.90
5392;DHT22;2719;53.624;9.786;2023-04-25T11:29:43;9.30;99.90
5392;DHT22;2719;53.624;9.786;2023-04-25T11:32:11;9.40;99.90
5392;DHT22;2719;53.624;9.786;2023-04-25T11:34:38;9.40;99.90
5392;DHT22;2719;53.624;9.786;2023-04-25T11:37:05;9.40;99.90
5392;DHT22;2719;53.624;9.786;2023-04-25T11:39:32;9.60;99.90
5392;DHT22;2719;53.624;9.786;2023-04-25T11:41:58;9.80;99.90
5392;DHT22;2719;53.624;9.786;2023-04-25T11:44:26;9.80;99.90
5392;DHT22;2719;53.624;9.786;2023-04-25T11:46:53;10.00;99.90
5392;DHT22;2719;53.624;9.786;2023-04-25T11:49:21;10.20;99.90
5392;DHT22;2719;53.624;9.786;2023-04-25T11:51:50;10.60;99.90
5392;DHT22;2719;53.624;9.786;2023-04-25T11:54:16;10.50;99.90
5392;DHT22;2719;53.624;9.786;2023-04-25T11:56:44;10.80;99.90
5392;DHT22;2719;53.624;9.786;2023-04-25T11:59:11;11.00;99.90
5392;DHT22;2719;53.624;9.786;2023-04-25T12:01:40;11.00;98.70
5392;DHT22;2719;53.624;9.786;2023-04-25T12:04:11;11.00;98.70
5392;DHT22;2719;53.624;9.786;2023-04-25T12:06:39;11.00;99.00
5392;DHT22;2719;53.624;9.786;2023-04-25T12:09:08;10.90;99.10
5392;DHT22;2719;53.624;9.786;2023-04-25T12:11:41;11.10;99.90
5392;DHT22;2719;53.624;9.786;2023-04-25T12:14:08;10.80;98.40
5392;DHT22;2719;53.624;9.786;2023-04-25T12:16:41;10.90;99.90
5392;DHT22;2719;53.624;9.786;2023-04-25T12:19:08;10.90;99.70
5392;DHT22;2719;53.624;9.786;2023-04-25T12:21:36;11.00;98.90
5392;DHT22;2719;53.624;9.786;2023-04-25T12:24:15;10.90;98.20
5392;DHT22;2719;53.624;9.786;2023-04-25T12:26:49;11.10;98.60
5392;DHT22;2719;53.624;9.786;2023-04-25T12:29:19;11.20;99.80
5392;DHT22;2719;53.624;9.786;2023-04-25T12:31:46;11.30;98.90
5392;DHT22;2719;53.624;9.786;2023-04-25T12:34:13;11.50;97.50
5392;DHT22;2719;53.624;9.786;2023-04-25T12:36:41;11.60;99.10
5392;DHT22;2719;53.624;9.786;2023-04-25T12:39:07;11.40;99.90
5392;DHT22;2719;53.624;9.786;2023-04-25T12:41:35;10.90;99.90
5392;DHT22;2719;53.624;9.786;2023-04-25T12:44:03;10.90;99.90
5392;DHT22;2719;53.624;9.786;2023-04-25T12:46:29;11.00;99.90
5392;DHT22;2719;53.624;9.786;2023-04-25T12:48:56;11.10;99.90
5392;DHT22;2719;53.624;9.786;2023-04-25T12:51:23;11.40;99.90
5392;DHT22;2719;53.624;9.786;2023-04-25T12:53:50;11.70;99.90
5392;DHT22;2719;53.624;9.786;2023-04-25T12:56:17;11.50;99.90
5392;DHT22;2719;53.624;9.786;2023-04-25T12:58:45;11.10;99.90
5392;DHT22;2719;53.624;9.786;2023-04-25T13:01:13;11.20;99.90
5392;DHT22;2719;53.624;9.786;2023-04-25T13:03:40;11.20;99.90
5392;DHT22;2719;53.624;9.786;2023-04-25T13:06:07;10.70;99.90
5392;DHT22;2719;53.624;9.786;2023-04-25T13:08:34;10.40;99.90
5392;DHT22;2719;53.624;9.786;2023-04-25T13:11:02;9.70;99.90
5392;DHT22;2719;53.624;9.786;2023-04-25T13:13:29;9.50;99.90
5392;DHT22;2719;53.624;9.786;2023-04-25T13:15:58;9.00;99.90
5392;DHT22;2719;53.624;9.786;2023-04-25T13:18:24;8.90;99.90
5392;DHT22;2719;53.624;9.786;2023-04-25T13:20:52;9.00;99.90
5392;DHT22;2719;53.624;9.786;2023-04-25T13:23:19;9.20;99.90
5392;DHT22;2719;53.624;9.786;2023-04-25T13:25:45;9.50;99.90
5392;DHT22;2719;53.624;9.786;2023-04-25T13:28:12;9.70;99.90
5392;DHT22;2719;53.624;9.786;2023-04-25T13:30:39;10.00;99.90
5392;DHT22;2719;53.624;9.786;2023-04-25T13:33:07;10.50;99.90
5392;DHT22;2719;53.624;9.786;2023-04-25T13:35:35;10.50;99.90
5392;DHT22;2719;53.624;9.786;2023-04-25T13:38:02;10.00;99.90
5392;DHT22;2719;53.624;9.786;2023-04-25T13:40:29;9.90;99.90
5392;DHT22;2719;53.624;9.786;2023-04-25T13:42:56;9.40;99.90
5392;DHT22;2719;53.624;9.786;2023-04-25T13:45:22;8.90;99.90
5392;DHT22;2719;53.624;9.786;2023-04-25T13:47:49;8.70;99.90
5392;DHT22;2719;53.624;9.786;2023-04-25T13:50:17;8.50;99.90
5392;DHT22;2719;53.624;9.786;2023-04-25T13:52:44;8.40;99.90
5392;DHT22;2719;53.624;9.786;2023-04-25T13:55:11;8.50;99.90
5392;DHT22;2719;53.624;9.786;2023-04-25T13:57:38;8.60;99.90
5392;DHT22;2719;53.624;9.786;2023-04-25T14:00:05;8.70;99.90
5392;DHT22;2719;53.624;9.786;2023-04-25T14:02:34;9.10;99.90
5392;DHT22;2719;53.624;9.786;2023-04-25T14:05:01;9.40;99.90
5392;DHT22;2719;53.624;9.786;2023-04-25T14:07:29;9.80;99.90
5392;DHT22;2719;53.624;9.786;2023-04-25T14:09:56;10.10;99.90
5392;DHT22;2719;53.624;9.786;2023-04-25T14:12:23;10.10;99.90
5392;DHT22;2719;53.624;9.786;2023-04-25T14:14:50;9.70;99.90
5392;DHT22;2719;53.624;9.786;2023-04-25T14:17:18;9.50;99.90
5392;DHT22;2719;53.624;9.786;2023-04-25T14:19:45;9.60;99.90
5392;DHT22;2719;53.624;9.786;2023-04-25T14:22:13;10.10;99.90
5392;DHT22;2719;53.624;9.786;2023-04-25T14:24:41;10.20;99.90
5392;DHT22;2719;53.624;9.786;2023-04-25T14:27:08;10.70;99.90
5392;DHT22;2719;53.624;9.786;2023-04-25T14:29:35;10.50;99.90
5392;DHT22;2719;53.624;9.786;2023-04-25T14:32:01;10.30;99.90
5392;DHT22;2719;53.624;9.786;2023-04-25T14:34:28;10.40;99.90
5392;DHT22;2719;53.624;9.786;2023-04-25T14:36:55;10.50;99.90
5392;DHT22;2719;53.624;9.786;2023-04-25T14:39:22;10.70;99.90
5392;DHT22;2719;53.624;9.786;2023-04-25T14:41:50;11.10;99.90
5392;DHT22;2719;53.624;9.786;2023-04-25T14:44:16;11.10;99.90
5392;DHT22;2719;53.624;9.786;2023-04-25T14:46:43;11.10;99.80
5392;DHT22;2719;53.624;9.786;2023-04-25T14:49:10;11.20;99.90
5392;DHT22;2719;53.624;9.786;2023-04-25T14:51:36;10.80;99.90
5392;DHT22;2719;53.624;9.786;2023-04-25T14:54:03;10.60;99.90
5392;DHT22;2719;53.624;9.786;2023-04-25T14:56:30;10.50;99.90
5392;DHT22;2719;53.624;9.786;2023-04-25T14:58:58;10.80;99.90
5392;DHT22;2719;53.624;9.786;2023-04-25T15:01:25;10.80;99.90
5392;DHT22;2719;53.624;9.786;2023-04-25T15:03:52;10.50;99.90
5392;DHT22;2719;53.624;9.786;2023-04-25T15:06:18;10.60;99.90
5392;DHT22;2719;53.624;9.786;2023-04-25T15:08:45;10.90;99.90
5392;DHT22;2719;53.624;9.786;2023-04-25T15:11:12;11.10;99.90
5392;DHT22;2719;53.624;9.786;2023-04-25T15:13:38;11.30;99.90
5392;DHT22;2719;53.624;9.786;2023-04-25T15:16:07;11.20;99.90
5392;DHT22;2719;53.624;9.786;2023-04-25T15:18:33;11.40;99.90
5392;DHT22;2719;53.624;9.786;2023-04-25T15:21:00;11.50;99.90
5392;DHT22;2719;53.624;9.786;2023-04-25T15:23:27;11.30;99.90
5392;DHT22;2719;53.624;9.786;2023-04-25T15:25:54;11.40;99.90
5392;DHT22;2719;53.624;9.786;2023-04-25T15:28:20;11.60;99.90
5392;DHT22;2719;53.624;9.786;2023-04-25T15:30:47;11.40;99.90
5392;DHT22;2719;53.624;9.786;2023-04-25T15:33:15;11.30;99.90
5392;DHT22;2719;53.624;9.786;2023-04-25T15:35:42;11.30;99.70
5392;DHT22;2719;53.624;9.786;2023-04-25T15:38:09;11.40;99.90
5392;DHT22;2719;53.624;9.786;2023-04-25T15:40:36;11.30;99.90
5392;DHT22;2719;53.624;9.786;2023-04-25T15:43:03;11.30;99.90
5392;DHT22;2719;53.624;9.786;2023-04-25T15:45:30;11.40;99.70
5392;DHT22;2719;53.624;9.786;2023-04-25T15:47:57;11.50;99.40
5392;DHT22;2719;53.624;9.786;2023-04-25T15:50:25;11.60;99.10
5392;DHT22;2719;53.624;9.786;2023-04-25T15:52:52;11.30;99.20
5392;DHT22;2719;53.624;9.786;2023-04-25T15:55:19;11.20;99.90
5392;DHT22;2719;53.624;9.786;2023-04-25T15:57:48;10.90;99.90
5392;DHT22;2719;53.624;9.786;2023-04-25T16:00:15;10.80;99.90
5392;DHT22;2719;53.624;9.786;2023-04-25T16:02:45;10.50;99.90
5392;DHT22;2719;53.624;9.786;2023-04-25T16:05:12;10.40;99.90
5392;DHT22;2719;53.624;9.786;2023-04-25T16:07:41;10.30;99.90
5392;DHT22;2719;53.624;9.786;2023-04-25T16:10:09;10.30;99.90
5392;DHT22;2719;53.624;9.786;2023-04-25T16:12:36;10.10;99.90
5392;DHT22;2719;53.624;9.786;2023-04-25T16:15:04;9.80;99.90
5392;DHT22;2719;53.624;9.786;2023-04-25T16:17:30;9.60;99.90